sensor_id;sensor_type;location;lat;lon;timestamp;P1;durP1;ratioP1;P2;durP2;ratioP2
28068;SDS011;15382;47.578;8.086;2023-04-03T00:01:34;3.47;;;2.27;;
28068;SDS011;15382;47.578;8.086;2023-04-03T00:11:35;3.53;;;2.30;;
28068;SDS011;15382;47.578;8.086;2023-04-03T00:21:36;2.90;;;2.03;;
28068;SDS011;15382;47.578;8.086;2023-04-03T00:31:36;3.50;;;2.20;;
28068;SDS011;15382;47.578;8.086;2023-04-03T00:41:37;7.03;;;2.50;;
28068;SDS011;15382;47.578;8.086;2023-04-03T01:01:39;2.07;;;1.50;;
28068;SDS011;15382;47.578;8.086;2023-04-03T01:31:52;2.97;;;1.88;;
28068;SDS011;15382;47.578;8.086;2023-04-03T01:41:54;2.55;;;1.80;;
28068;SDS011;15382;47.578;8.086;2023-04-03T01:52:08;2.75;;;1.80;;
28068;SDS011;15382;47.578;8.086;2023-04-03T02:12:12;2.15;;;1.40;;
28068;SDS011;15382;47.578;8.086;2023-04-03T02:32:14;1.88;;;1.15;;
28068;SDS011;15382;47.578;8.086;2023-04-03T02:42:15;2.35;;;1.55;;
28068;SDS011;15382;47.578;8.086;2023-04-03T02:52:16;1.92;;;1.65;;
28068;SDS011;15382;47.578;8.086;2023-04-03T03:12:18;4.03;;;1.73;;
28068;SDS011;15382;47.578;8.086;2023-04-03T03:22:21;4.57;;;2.47;;
28068;SDS011;15382;47.578;8.086;2023-04-03T03:32:22;5.72;;;2.80;;
28068;SDS011;15382;47.578;8.086;2023-04-03T03:52:24;8.32;;;2.60;;
28068;SDS011;15382;47.578;8.086;2023-04-03T04:02:25;4.93;;;3.15;;
28068;SDS011;15382;47.578;8.086;2023-04-03T04:12:27;9.82;;;4.13;;
28068;SDS011;15382;47.578;8.086;2023-04-03T04:22:28;6.05;;;3.35;;
28068;SDS011;15382;47.578;8.086;2023-04-03T04:32:29;6.57;;;3.72;;
28068;SDS011;15382;47.578;8.086;2023-04-03T04:42:31;6.82;;;3.92;;
28068;SDS011;15382;47.578;8.086;2023-04-03T04:52:31;5.82;;;4.03;;
28068;SDS011;15382;47.578;8.086;2023-04-03T05:02:33;7.35;;;3.85;;
28068;SDS011;15382;47.578;8.086;2023-04-03T05:12:34;6.57;;;3.90;;
28068;SDS011;15382;47.578;8.086;2023-04-03T05:22:37;7.50;;;4.47;;
28068;SDS011;15382;47.578;8.086;2023-04-03T05:32:41;8.43;;;4.85;;
28068;SDS011;15382;47.578;8.086;2023-04-03T05:42:57;10.85;;;5.88;;
28068;SDS011;15382;47.578;8.086;2023-04-03T05:53:01;12.05;;;6.47;;
28068;SDS011;15382;47.578;8.086;2023-04-03T06:03:04;15.30;;;9.98;;
28068;SDS011;15382;47.578;8.086;2023-04-03T06:13:05;11.02;;;6.22;;
28068;SDS011;15382;47.578;8.086;2023-04-03T06:23:07;8.05;;;4.90;;
28068;SDS011;15382;47.578;8.086;2023-04-03T06:33:08;8.95;;;4.75;;
28068;SDS011;15382;47.578;8.086;2023-04-03T06:43:08;8.05;;;4.15;;
28068;SDS011;15382;47.578;8.086;2023-04-03T06:53:09;6.35;;;3.72;;
28068;SDS011;15382;47.578;8.086;2023-04-03T07:03:10;5.05;;;3.65;;
28068;SDS011;15382;47.578;8.086;2023-04-03T07:13:11;6.57;;;3.92;;
28068;SDS011;15382;47.578;8.086;2023-04-03T07:23:12;5.25;;;3.42;;
28068;SDS011;15382;47.578;8.086;2023-04-03T07:33:13;7.07;;;4.40;;
28068;SDS011;15382;47.578;8.086;2023-04-03T07:43:16;6.57;;;3.90;;
28068;SDS011;15382;47.578;8.086;2023-04-03T07:53:17;6.53;;;4.28;;
28068;SDS011;15382;47.578;8.086;2023-04-03T08:03:18;7.30;;;3.58;;
28068;SDS011;15382;47.578;8.086;2023-04-03T08:13:21;6.50;;;3.60;;
28068;SDS011;15382;47.578;8.086;2023-04-03T08:23:22;6.38;;;3.65;;
28068;SDS011;15382;47.578;8.086;2023-04-03T08:33:23;5.07;;;3.45;;
28068;SDS011;15382;47.578;8.086;2023-04-03T08:53:32;6.72;;;3.17;;
28068;SDS011;15382;47.578;8.086;2023-04-03T09:03:38;3.88;;;2.20;;
28068;SDS011;15382;47.578;8.086;2023-04-03T09:13:51;3.08;;;2.17;;
28068;SDS011;15382;47.578;8.086;2023-04-03T09:24:06;4.95;;;1.90;;
28068;SDS011;15382;47.578;8.086;2023-04-03T09:34:22;7.38;;;3.95;;
28068;SDS011;15382;47.578;8.086;2023-04-03T09:44:33;3.50;;;2.30;;
28068;SDS011;15382;47.578;8.086;2023-04-03T09:54:37;4.90;;;1.98;;
28068;SDS011;15382;47.578;8.086;2023-04-03T10:04:40;2.33;;;1.58;;
28068;SDS011;15382;47.578;8.086;2023-04-03T10:35:25;2.55;;;1.60;;
28068;SDS011;15382;47.578;8.086;2023-04-03T11:16:48;5.35;;;3.33;;
28068;SDS011;15382;47.578;8.086;2023-04-03T11:27:15;3.25;;;1.90;;
28068;SDS011;15382;47.578;8.086;2023-04-03T11:37:25;4.90;;;2.72;;
28068;SDS011;15382;47.578;8.086;2023-04-03T11:47:49;3.15;;;1.85;;
28068;SDS011;15382;47.578;8.086;2023-04-03T12:28:53;3.60;;;1.63;;
28068;SDS011;15382;47.578;8.086;2023-04-03T12:39:01;6.22;;;3.13;;
28068;SDS011;15382;47.578;8.086;2023-04-03T12:49:18;4.38;;;2.20;;
28068;SDS011;15382;47.578;8.086;2023-04-03T12:59:34;5.20;;;2.88;;
28068;SDS011;15382;47.578;8.086;2023-04-03T13:09:36;3.72;;;1.98;;
28068;SDS011;15382;47.578;8.086;2023-04-03T13:19:37;3.55;;;1.95;;
28068;SDS011;15382;47.578;8.086;2023-04-03T13:29:38;4.38;;;2.30;;
28068;SDS011;15382;47.578;8.086;2023-04-03T13:39:40;2.83;;;2.00;;
28068;SDS011;15382;47.578;8.086;2023-04-03T14:00:20;2.75;;;2.10;;
28068;SDS011;15382;47.578;8.086;2023-04-03T14:10:37;3.95;;;2.15;;
28068;SDS011;15382;47.578;8.086;2023-04-03T14:20:39;2.85;;;1.90;;
28068;SDS011;15382;47.578;8.086;2023-04-03T14:30:39;2.70;;;1.80;;
28068;SDS011;15382;47.578;8.086;2023-04-03T14:40:40;2.03;;;1.70;;
28068;SDS011;15382;47.578;8.086;2023-04-03T14:50:41;2.07;;;1.50;;
28068;SDS011;15382;47.578;8.086;2023-04-03T15:00:42;4.07;;;2.27;;
28068;SDS011;15382;47.578;8.086;2023-04-03T15:10:43;4.25;;;1.80;;
28068;SDS011;15382;47.578;8.086;2023-04-03T15:20:44;2.47;;;1.83;;
28068;SDS011;15382;47.578;8.086;2023-04-03T15:30:46;1.92;;;1.55;;
28068;SDS011;15382;47.578;8.086;2023-04-03T15:40:47;4.28;;;2.28;;
28068;SDS011;15382;47.578;8.086;2023-04-03T15:50:48;2.58;;;1.67;;
28068;SDS011;15382;47.578;8.086;2023-04-03T16:00:49;5.53;;;2.10;;
28068;SDS011;15382;47.578;8.086;2023-04-03T16:10:50;3.05;;;1.77;;
28068;SDS011;15382;47.578;8.086;2023-04-03T16:20:51;3.28;;;1.50;;
28068;SDS011;15382;47.578;8.086;2023-04-03T16:40:53;3.72;;;1.52;;
28068;SDS011;15382;47.578;8.086;2023-04-03T16:50:56;4.20;;;2.08;;
28068;SDS011;15382;47.578;8.086;2023-04-03T17:10:58;4.78;;;2.00;;
28068;SDS011;15382;47.578;8.086;2023-04-03T17:20:59;4.40;;;2.00;;
28068;SDS011;15382;47.578;8.086;2023-04-03T17:31:01;3.88;;;1.95;;
28068;SDS011;15382;47.578;8.086;2023-04-03T17:41:06;3.80;;;2.00;;
28068;SDS011;15382;47.578;8.086;2023-04-03T17:51:09;4.22;;;1.90;;
28068;SDS011;15382;47.578;8.086;2023-04-03T18:01:16;2.80;;;1.90;;
28068;SDS011;15382;47.578;8.086;2023-04-03T18:11:19;3.55;;;2.30;;
28068;SDS011;15382;47.578;8.086;2023-04-03T18:21:22;3.17;;;2.00;;
28068;SDS011;15382;47.578;8.086;2023-04-03T18:41:26;4.65;;;2.20;;
28068;SDS011;15382;47.578;8.086;2023-04-03T18:51:29;4.10;;;2.15;;
28068;SDS011;15382;47.578;8.086;2023-04-03T19:11:31;3.30;;;2.10;;
28068;SDS011;15382;47.578;8.086;2023-04-03T19:31:34;3.47;;;2.53;;
28068;SDS011;15382;47.578;8.086;2023-04-03T19:41:36;5.18;;;2.78;;
28068;SDS011;15382;47.578;8.086;2023-04-03T19:51:39;3.45;;;2.60;;
28068;SDS011;15382;47.578;8.086;2023-04-03T20:01:41;3.95;;;2.28;;
28068;SDS011;15382;47.578;8.086;2023-04-03T20:11:42;3.30;;;2.35;;
28068;SDS011;15382;47.578;8.086;2023-04-03T20:21:46;4.80;;;2.17;;
28068;SDS011;15382;47.578;8.086;2023-04-03T20:31:47;9.25;;;2.65;;
28068;SDS011;15382;47.578;8.086;2023-04-03T20:41:48;3.88;;;2.20;;
28068;SDS011;15382;47.578;8.086;2023-04-03T20:51:50;3.45;;;1.90;;
28068;SDS011;15382;47.578;8.086;2023-04-03T21:01:51;4.28;;;2.80;;
28068;SDS011;15382;47.578;8.086;2023-04-03T21:22:32;5.25;;;2.90;;
28068;SDS011;15382;47.578;8.086;2023-04-03T21:32:33;7.85;;;2.40;;
28068;SDS011;15382;47.578;8.086;2023-04-03T21:42:33;4.40;;;1.98;;
28068;SDS011;15382;47.578;8.086;2023-04-03T21:52:34;4.88;;;2.00;;
28068;SDS011;15382;47.578;8.086;2023-04-03T22:02:38;7.40;;;2.10;;
28068;SDS011;15382;47.578;8.086;2023-04-03T22:12:40;6.13;;;2.88;;
28068;SDS011;15382;47.578;8.086;2023-04-03T22:22:41;4.05;;;2.28;;
28068;SDS011;15382;47.578;8.086;2023-04-03T22:32:42;8.25;;;2.33;;
28068;SDS011;15382;47.578;8.086;2023-04-03T22:42:46;5.93;;;2.78;;
28068;SDS011;15382;47.578;8.086;2023-04-03T22:52:47;5.43;;;2.08;;
28068;SDS011;15382;47.578;8.086;2023-04-03T23:02:48;3.85;;;1.70;;
28068;SDS011;15382;47.578;8.086;2023-04-03T23:12:49;6.68;;;2.05;;
28068;SDS011;15382;47.578;8.086;2023-04-03T23:22:50;3.20;;;1.88;;
28068;SDS011;15382;47.578;8.086;2023-04-03T23:32:50;4.63;;;1.92;;
28068;SDS011;15382;47.578;8.086;2023-04-03T23:42:51;3.28;;;1.80;;
28068;SDS011;15382;47.578;8.086;2023-04-03T23:52:52;3.58;;;1.88;;
